sensor_id;sensor_type;location;lat;lon;timestamp;P1;durP1;ratioP1;P2;durP2;ratioP2
5900;SDS011;2976;49.764;9.796;2023-01-19T00:01:34;27.52;;;11.38;;
5900;SDS011;2976;49.764;9.796;2023-01-19T00:04:00;21.43;;;10.80;;
5900;SDS011;2976;49.764;9.796;2023-01-19T00:06:25;39.17;;;13.33;;
5900;SDS011;2976;49.764;9.796;2023-01-19T00:08:51;26.70;;;12.27;;
5900;SDS011;2976;49.764;9.796;2023-01-19T00:11:17;30.30;;;13.17;;
5900;SDS011;2976;49.764;9.796;2023-01-19T00:13:43;29.90;;;13.90;;
5900;SDS011;2976;49.764;9.796;2023-01-19T00:16:15;26.98;;;13.05;;
5900;SDS011;2976;49.764;9.796;2023-01-19T00:18:45;29.35;;;12.70;;
5900;SDS011;2976;49.764;9.796;2023-01-19T00:21:11;25.50;;;11.23;;
5900;SDS011;2976;49.764;9.796;2023-01-19T00:23:38;29.23;;;11.30;;
5900;SDS011;2976;49.764;9.796;2023-01-19T00:26:04;31.23;;;13.97;;
5900;SDS011;2976;49.764;9.796;2023-01-19T00:28:30;29.27;;;13.10;;
5900;SDS011;2976;49.764;9.796;2023-01-19T00:30:55;35.93;;;13.60;;
5900;SDS011;2976;49.764;9.796;2023-01-19T00:33:21;26.13;;;12.80;;
5900;SDS011;2976;49.764;9.796;2023-01-19T00:35:50;24.40;;;11.30;;
5900;SDS011;2976;49.764;9.796;2023-01-19T00:38:16;28.42;;;13.88;;
5900;SDS011;2976;49.764;9.796;2023-01-19T00:40:42;38.63;;;13.13;;
5900;SDS011;2976;49.764;9.796;2023-01-19T00:43:08;27.97;;;13.30;;
5900;SDS011;2976;49.764;9.796;2023-01-19T00:45:33;25.30;;;12.10;;
5900;SDS011;2976;49.764;9.796;2023-01-19T00:47:59;31.40;;;13.93;;
5900;SDS011;2976;49.764;9.796;2023-01-19T00:50:26;36.33;;;14.90;;
5900;SDS011;2976;49.764;9.796;2023-01-19T00:52:53;46.05;;;13.55;;
5900;SDS011;2976;49.764;9.796;2023-01-19T00:55:19;28.50;;;12.80;;
5900;SDS011;2976;49.764;9.796;2023-01-19T00:57:45;41.00;;;15.40;;
5900;SDS011;2976;49.764;9.796;2023-01-19T01:00:12;28.67;;;11.93;;
5900;SDS011;2976;49.764;9.796;2023-01-19T01:02:40;33.67;;;13.82;;
5900;SDS011;2976;49.764;9.796;2023-01-19T01:05:07;36.47;;;15.38;;
5900;SDS011;2976;49.764;9.796;2023-01-19T01:07:33;38.78;;;16.25;;
5900;SDS011;2976;49.764;9.796;2023-01-19T01:10:05;43.67;;;14.00;;
5900;SDS011;2976;49.764;9.796;2023-01-19T01:12:50;39.42;;;15.40;;
5900;SDS011;2976;49.764;9.796;2023-01-19T01:15:16;37.85;;;14.45;;
5900;SDS011;2976;49.764;9.796;2023-01-19T01:17:42;38.78;;;15.77;;
5900;SDS011;2976;49.764;9.796;2023-01-19T01:20:19;32.10;;;15.75;;
5900;SDS011;2976;49.764;9.796;2023-01-19T01:22:51;43.38;;;16.88;;
5900;SDS011;2976;49.764;9.796;2023-01-19T01:25:18;39.60;;;14.23;;
5900;SDS011;2976;49.764;9.796;2023-01-19T01:27:46;37.00;;;15.20;;
5900;SDS011;2976;49.764;9.796;2023-01-19T01:30:12;40.77;;;15.03;;
5900;SDS011;2976;49.764;9.796;2023-01-19T01:32:39;36.55;;;15.00;;
5900;SDS011;2976;49.764;9.796;2023-01-19T01:35:05;30.47;;;15.40;;
5900;SDS011;2976;49.764;9.796;2023-01-19T01:37:31;38.60;;;16.48;;
5900;SDS011;2976;49.764;9.796;2023-01-19T01:39:56;48.20;;;16.50;;
5900;SDS011;2976;49.764;9.796;2023-01-19T01:42:25;36.53;;;15.40;;
5900;SDS011;2976;49.764;9.796;2023-01-19T01:44:54;38.70;;;14.18;;
5900;SDS011;2976;49.764;9.796;2023-01-19T01:49:53;33.10;;;14.18;;
5900;SDS011;2976;49.764;9.796;2023-01-19T01:52:30;35.50;;;13.93;;
5900;SDS011;2976;49.764;9.796;2023-01-19T01:54:58;39.92;;;15.90;;
5900;SDS011;2976;49.764;9.796;2023-01-19T01:57:24;40.25;;;14.77;;
5900;SDS011;2976;49.764;9.796;2023-01-19T01:59:51;39.25;;;15.45;;
5900;SDS011;2976;49.764;9.796;2023-01-19T02:02:20;36.17;;;16.42;;
5900;SDS011;2976;49.764;9.796;2023-01-19T02:05:08;38.83;;;15.07;;
5900;SDS011;2976;49.764;9.796;2023-01-19T02:07:56;39.10;;;15.23;;
5900;SDS011;2976;49.764;9.796;2023-01-19T02:10:45;37.50;;;15.00;;
5900;SDS011;2976;49.764;9.796;2023-01-19T02:13:32;36.10;;;16.38;;
5900;SDS011;2976;49.764;9.796;2023-01-19T02:16:00;39.60;;;16.38;;
5900;SDS011;2976;49.764;9.796;2023-01-19T02:18:30;44.25;;;16.20;;
5900;SDS011;2976;49.764;9.796;2023-01-19T02:23:32;40.50;;;16.52;;
5900;SDS011;2976;49.764;9.796;2023-01-19T02:26:02;40.88;;;15.25;;
5900;SDS011;2976;49.764;9.796;2023-01-19T02:28:29;43.72;;;16.83;;
5900;SDS011;2976;49.764;9.796;2023-01-19T02:30:55;34.63;;;14.90;;
5900;SDS011;2976;49.764;9.796;2023-01-19T02:33:21;30.43;;;14.30;;
5900;SDS011;2976;49.764;9.796;2023-01-19T02:35:46;37.80;;;15.37;;
5900;SDS011;2976;49.764;9.796;2023-01-19T02:38:15;47.45;;;16.88;;
5900;SDS011;2976;49.764;9.796;2023-01-19T02:40:42;35.92;;;15.48;;
5900;SDS011;2976;49.764;9.796;2023-01-19T02:43:09;40.35;;;14.85;;
5900;SDS011;2976;49.764;9.796;2023-01-19T02:45:35;35.93;;;14.83;;
5900;SDS011;2976;49.764;9.796;2023-01-19T02:48:01;33.10;;;13.85;;
5900;SDS011;2976;49.764;9.796;2023-01-19T02:50:33;35.08;;;12.98;;
5900;SDS011;2976;49.764;9.796;2023-01-19T02:53:05;31.75;;;14.25;;
5900;SDS011;2976;49.764;9.796;2023-01-19T02:56:12;33.75;;;13.65;;
5900;SDS011;2976;49.764;9.796;2023-01-19T02:59:05;26.80;;;12.20;;
5900;SDS011;2976;49.764;9.796;2023-01-19T03:07:15;34.30;;;13.00;;
5900;SDS011;2976;49.764;9.796;2023-01-19T03:09:58;37.95;;;13.35;;
5900;SDS011;2976;49.764;9.796;2023-01-19T03:12:42;33.60;;;12.98;;
5900;SDS011;2976;49.764;9.796;2023-01-19T03:15:18;28.63;;;12.45;;
5900;SDS011;2976;49.764;9.796;2023-01-19T03:17:47;34.55;;;14.77;;
5900;SDS011;2976;49.764;9.796;2023-01-19T03:20:17;32.55;;;13.82;;
5900;SDS011;2976;49.764;9.796;2023-01-19T03:22:46;30.95;;;14.00;;
5900;SDS011;2976;49.764;9.796;2023-01-19T03:25:16;37.30;;;13.60;;
5900;SDS011;2976;49.764;9.796;2023-01-19T03:27:43;35.80;;;14.40;;
5900;SDS011;2976;49.764;9.796;2023-01-19T03:30:11;29.90;;;13.32;;
5900;SDS011;2976;49.764;9.796;2023-01-19T03:32:47;29.08;;;13.98;;
5900;SDS011;2976;49.764;9.796;2023-01-19T03:35:16;27.73;;;12.43;;
5900;SDS011;2976;49.764;9.796;2023-01-19T03:37:46;32.47;;;13.93;;
5900;SDS011;2976;49.764;9.796;2023-01-19T03:40:15;37.05;;;14.98;;
5900;SDS011;2976;49.764;9.796;2023-01-19T03:42:41;28.48;;;13.15;;
5900;SDS011;2976;49.764;9.796;2023-01-19T03:45:08;30.52;;;13.48;;
5900;SDS011;2976;49.764;9.796;2023-01-19T03:47:37;36.78;;;16.17;;
5900;SDS011;2976;49.764;9.796;2023-01-19T03:50:04;36.10;;;15.70;;
5900;SDS011;2976;49.764;9.796;2023-01-19T03:52:33;38.10;;;16.20;;
5900;SDS011;2976;49.764;9.796;2023-01-19T03:55:02;33.47;;;15.67;;
5900;SDS011;2976;49.764;9.796;2023-01-19T03:57:29;37.00;;;16.10;;
5900;SDS011;2976;49.764;9.796;2023-01-19T03:59:55;44.53;;;17.47;;
5900;SDS011;2976;49.764;9.796;2023-01-19T04:02:21;34.67;;;16.50;;
5900;SDS011;2976;49.764;9.796;2023-01-19T04:04:47;39.92;;;16.75;;
5900;SDS011;2976;49.764;9.796;2023-01-19T04:07:13;40.10;;;16.80;;
5900;SDS011;2976;49.764;9.796;2023-01-19T04:09:39;36.93;;;16.30;;
5900;SDS011;2976;49.764;9.796;2023-01-19T04:12:05;33.30;;;15.93;;
5900;SDS011;2976;49.764;9.796;2023-01-19T04:14:30;40.30;;;16.23;;
5900;SDS011;2976;49.764;9.796;2023-01-19T04:16:56;36.80;;;15.80;;
5900;SDS011;2976;49.764;9.796;2023-01-19T04:19:21;42.00;;;17.47;;
5900;SDS011;2976;49.764;9.796;2023-01-19T04:21:47;52.70;;;16.20;;
5900;SDS011;2976;49.764;9.796;2023-01-19T04:24:14;32.53;;;15.85;;
5900;SDS011;2976;49.764;9.796;2023-01-19T04:26:40;37.80;;;17.50;;
5900;SDS011;2976;49.764;9.796;2023-01-19T04:29:06;44.67;;;18.47;;
5900;SDS011;2976;49.764;9.796;2023-01-19T04:31:31;44.60;;;17.63;;
5900;SDS011;2976;49.764;9.796;2023-01-19T04:33:59;46.17;;;18.27;;
5900;SDS011;2976;49.764;9.796;2023-01-19T04:36:25;42.03;;;18.07;;
5900;SDS011;2976;49.764;9.796;2023-01-19T04:38:51;40.72;;;17.88;;
5900;SDS011;2976;49.764;9.796;2023-01-19T04:41:17;42.23;;;16.80;;
5900;SDS011;2976;49.764;9.796;2023-01-19T04:43:42;40.60;;;17.90;;
5900;SDS011;2976;49.764;9.796;2023-01-19T04:46:08;39.80;;;18.53;;
5900;SDS011;2976;49.764;9.796;2023-01-19T04:48:33;36.93;;;17.50;;
5900;SDS011;2976;49.764;9.796;2023-01-19T04:50:59;39.63;;;17.87;;
5900;SDS011;2976;49.764;9.796;2023-01-19T04:53:24;34.07;;;16.53;;
5900;SDS011;2976;49.764;9.796;2023-01-19T04:55:53;36.90;;;18.80;;
5900;SDS011;2976;49.764;9.796;2023-01-19T04:58:19;47.15;;;18.90;;
5900;SDS011;2976;49.764;9.796;2023-01-19T05:00:45;43.50;;;17.70;;
5900;SDS011;2976;49.764;9.796;2023-01-19T05:03:10;41.17;;;18.20;;
5900;SDS011;2976;49.764;9.796;2023-01-19T05:05:36;38.30;;;17.17;;
5900;SDS011;2976;49.764;9.796;2023-01-19T05:08:01;42.37;;;16.83;;
5900;SDS011;2976;49.764;9.796;2023-01-19T05:10:27;43.07;;;18.13;;
5900;SDS011;2976;49.764;9.796;2023-01-19T05:12:53;34.87;;;16.37;;
5900;SDS011;2976;49.764;9.796;2023-01-19T05:15:19;32.75;;;17.38;;
5900;SDS011;2976;49.764;9.796;2023-01-19T05:17:44;43.07;;;19.03;;
5900;SDS011;2976;49.764;9.796;2023-01-19T05:20:10;35.50;;;17.10;;
5900;SDS011;2976;49.764;9.796;2023-01-19T05:22:36;34.47;;;17.13;;
5900;SDS011;2976;49.764;9.796;2023-01-19T05:25:03;35.80;;;17.42;;
5900;SDS011;2976;49.764;9.796;2023-01-19T05:27:29;36.03;;;17.23;;
5900;SDS011;2976;49.764;9.796;2023-01-19T05:29:55;42.40;;;17.90;;
5900;SDS011;2976;49.764;9.796;2023-01-19T05:32:20;30.83;;;15.77;;
5900;SDS011;2976;49.764;9.796;2023-01-19T05:34:46;36.60;;;16.30;;
5900;SDS011;2976;49.764;9.796;2023-01-19T05:37:11;38.57;;;17.00;;
5900;SDS011;2976;49.764;9.796;2023-01-19T05:39:37;35.70;;;16.67;;
5900;SDS011;2976;49.764;9.796;2023-01-19T05:42:03;36.70;;;17.77;;
5900;SDS011;2976;49.764;9.796;2023-01-19T05:44:29;36.93;;;17.10;;
5900;SDS011;2976;49.764;9.796;2023-01-19T05:46:54;36.67;;;17.03;;
5900;SDS011;2976;49.764;9.796;2023-01-19T05:49:20;36.60;;;18.63;;
5900;SDS011;2976;49.764;9.796;2023-01-19T05:51:45;30.67;;;16.60;;
5900;SDS011;2976;49.764;9.796;2023-01-19T05:54:12;42.30;;;15.10;;
5900;SDS011;2976;49.764;9.796;2023-01-19T05:56:39;35.13;;;16.75;;
5900;SDS011;2976;49.764;9.796;2023-01-19T05:59:04;38.07;;;16.07;;
5900;SDS011;2976;49.764;9.796;2023-01-19T06:01:30;37.57;;;15.20;;
5900;SDS011;2976;49.764;9.796;2023-01-19T06:03:57;27.63;;;13.75;;
5900;SDS011;2976;49.764;9.796;2023-01-19T06:06:22;34.43;;;14.77;;
5900;SDS011;2976;49.764;9.796;2023-01-19T06:08:48;31.33;;;14.70;;
5900;SDS011;2976;49.764;9.796;2023-01-19T06:11:13;29.27;;;15.23;;
5900;SDS011;2976;49.764;9.796;2023-01-19T06:13:39;35.73;;;15.67;;
5900;SDS011;2976;49.764;9.796;2023-01-19T06:16:04;42.23;;;15.67;;
5900;SDS011;2976;49.764;9.796;2023-01-19T06:18:30;32.40;;;15.30;;
5900;SDS011;2976;49.764;9.796;2023-01-19T06:20:56;30.27;;;14.70;;
5900;SDS011;2976;49.764;9.796;2023-01-19T06:23:25;27.25;;;15.00;;
5900;SDS011;2976;49.764;9.796;2023-01-19T06:25:55;29.35;;;13.32;;
5900;SDS011;2976;49.764;9.796;2023-01-19T06:28:20;30.60;;;14.40;;
5900;SDS011;2976;49.764;9.796;2023-01-19T06:30:49;29.13;;;13.80;;
5900;SDS011;2976;49.764;9.796;2023-01-19T06:33:15;26.80;;;14.73;;
5900;SDS011;2976;49.764;9.796;2023-01-19T06:35:42;31.35;;;15.38;;
5900;SDS011;2976;49.764;9.796;2023-01-19T06:38:08;33.97;;;16.10;;
5900;SDS011;2976;49.764;9.796;2023-01-19T06:40:33;38.43;;;15.77;;
5900;SDS011;2976;49.764;9.796;2023-01-19T06:42:59;34.70;;;16.17;;
5900;SDS011;2976;49.764;9.796;2023-01-19T06:45:24;40.90;;;17.60;;
5900;SDS011;2976;49.764;9.796;2023-01-19T06:47:50;40.00;;;17.20;;
5900;SDS011;2976;49.764;9.796;2023-01-19T06:50:15;34.60;;;15.00;;
5900;SDS011;2976;49.764;9.796;2023-01-19T06:52:41;39.00;;;16.33;;
5900;SDS011;2976;49.764;9.796;2023-01-19T06:55:08;33.70;;;14.73;;
5900;SDS011;2976;49.764;9.796;2023-01-19T06:57:35;34.47;;;15.32;;
5900;SDS011;2976;49.764;9.796;2023-01-19T07:00:03;37.25;;;17.02;;
5900;SDS011;2976;49.764;9.796;2023-01-19T07:02:32;36.70;;;17.88;;
5900;SDS011;2976;49.764;9.796;2023-01-19T07:04:58;43.53;;;17.40;;
5900;SDS011;2976;49.764;9.796;2023-01-19T07:07:24;35.30;;;16.97;;
5900;SDS011;2976;49.764;9.796;2023-01-19T07:09:50;32.90;;;16.37;;
5900;SDS011;2976;49.764;9.796;2023-01-19T07:12:16;28.75;;;15.25;;
5900;SDS011;2976;49.764;9.796;2023-01-19T07:14:42;35.23;;;15.37;;
5900;SDS011;2976;49.764;9.796;2023-01-19T07:17:07;33.53;;;14.13;;
5900;SDS011;2976;49.764;9.796;2023-01-19T07:19:33;36.40;;;15.33;;
5900;SDS011;2976;49.764;9.796;2023-01-19T07:21:59;39.08;;;15.43;;
5900;SDS011;2976;49.764;9.796;2023-01-19T07:24:26;32.17;;;15.27;;
5900;SDS011;2976;49.764;9.796;2023-01-19T07:26:51;29.97;;;14.63;;
5900;SDS011;2976;49.764;9.796;2023-01-19T07:29:17;32.10;;;16.90;;
5900;SDS011;2976;49.764;9.796;2023-01-19T07:31:42;32.27;;;15.30;;
5900;SDS011;2976;49.764;9.796;2023-01-19T07:34:08;27.47;;;15.10;;
5900;SDS011;2976;49.764;9.796;2023-01-19T07:36:33;28.70;;;15.20;;
5900;SDS011;2976;49.764;9.796;2023-01-19T07:39:00;35.60;;;16.45;;
5900;SDS011;2976;49.764;9.796;2023-01-19T07:41:25;30.63;;;14.57;;
5900;SDS011;2976;49.764;9.796;2023-01-19T07:43:51;31.07;;;16.00;;
5900;SDS011;2976;49.764;9.796;2023-01-19T07:46:17;29.73;;;15.20;;
5900;SDS011;2976;49.764;9.796;2023-01-19T07:48:42;29.47;;;14.07;;
5900;SDS011;2976;49.764;9.796;2023-01-19T07:51:08;28.90;;;15.43;;
5900;SDS011;2976;49.764;9.796;2023-01-19T07:53:36;33.03;;;16.83;;
5900;SDS011;2976;49.764;9.796;2023-01-19T07:56:02;31.25;;;14.80;;
5900;SDS011;2976;49.764;9.796;2023-01-19T07:58:31;29.77;;;14.77;;
5900;SDS011;2976;49.764;9.796;2023-01-19T08:00:57;60.47;;;15.17;;
5900;SDS011;2976;49.764;9.796;2023-01-19T08:03:22;26.40;;;14.83;;
5900;SDS011;2976;49.764;9.796;2023-01-19T08:05:48;31.73;;;15.87;;
5900;SDS011;2976;49.764;9.796;2023-01-19T08:08:15;33.83;;;15.95;;
5900;SDS011;2976;49.764;9.796;2023-01-19T08:10:41;28.93;;;13.90;;
5900;SDS011;2976;49.764;9.796;2023-01-19T08:13:06;41.93;;;15.30;;
5900;SDS011;2976;49.764;9.796;2023-01-19T08:15:32;51.97;;;17.20;;
5900;SDS011;2976;49.764;9.796;2023-01-19T08:17:58;29.43;;;15.77;;
5900;SDS011;2976;49.764;9.796;2023-01-19T08:20:29;27.67;;;14.07;;
5900;SDS011;2976;49.764;9.796;2023-01-19T08:22:55;24.33;;;13.57;;
5900;SDS011;2976;49.764;9.796;2023-01-19T08:25:33;24.20;;;12.97;;
5900;SDS011;2976;49.764;9.796;2023-01-19T08:28:05;24.00;;;12.87;;
5900;SDS011;2976;49.764;9.796;2023-01-19T08:30:31;23.03;;;13.27;;
5900;SDS011;2976;49.764;9.796;2023-01-19T08:32:57;23.67;;;11.63;;
5900;SDS011;2976;49.764;9.796;2023-01-19T08:35:32;16.70;;;10.43;;
5900;SDS011;2976;49.764;9.796;2023-01-19T08:38:00;19.80;;;11.87;;
5900;SDS011;2976;49.764;9.796;2023-01-19T08:40:27;16.67;;;10.43;;
5900;SDS011;2976;49.764;9.796;2023-01-19T08:42:56;18.40;;;10.90;;
5900;SDS011;2976;49.764;9.796;2023-01-19T08:45:27;14.57;;;9.20;;
5900;SDS011;2976;49.764;9.796;2023-01-19T08:47:54;20.83;;;9.30;;
5900;SDS011;2976;49.764;9.796;2023-01-19T08:50:22;14.77;;;9.50;;
5900;SDS011;2976;49.764;9.796;2023-01-19T08:52:54;17.57;;;8.03;;
5900;SDS011;2976;49.764;9.796;2023-01-19T08:55:20;14.53;;;8.33;;
5900;SDS011;2976;49.764;9.796;2023-01-19T08:57:49;14.93;;;8.60;;
5900;SDS011;2976;49.764;9.796;2023-01-19T09:00:16;11.80;;;7.80;;
5900;SDS011;2976;49.764;9.796;2023-01-19T09:02:42;13.47;;;7.47;;
5900;SDS011;2976;49.764;9.796;2023-01-19T09:05:08;13.10;;;7.63;;
5900;SDS011;2976;49.764;9.796;2023-01-19T09:07:33;14.27;;;7.73;;
5900;SDS011;2976;49.764;9.796;2023-01-19T09:09:59;12.47;;;8.00;;
5900;SDS011;2976;49.764;9.796;2023-01-19T09:12:24;14.10;;;7.87;;
5900;SDS011;2976;49.764;9.796;2023-01-19T09:14:50;12.70;;;8.53;;
5900;SDS011;2976;49.764;9.796;2023-01-19T09:17:15;15.73;;;8.67;;
5900;SDS011;2976;49.764;9.796;2023-01-19T09:19:42;23.67;;;9.20;;
5900;SDS011;2976;49.764;9.796;2023-01-19T09:22:07;14.60;;;8.90;;
5900;SDS011;2976;49.764;9.796;2023-01-19T09:24:33;22.27;;;9.77;;
5900;SDS011;2976;49.764;9.796;2023-01-19T09:26:59;13.33;;;7.33;;
5900;SDS011;2976;49.764;9.796;2023-01-19T09:29:25;10.00;;;7.23;;
5900;SDS011;2976;49.764;9.796;2023-01-19T09:31:50;13.30;;;8.10;;
5900;SDS011;2976;49.764;9.796;2023-01-19T09:34:16;14.17;;;9.00;;
5900;SDS011;2976;49.764;9.796;2023-01-19T09:36:41;13.00;;;7.87;;
5900;SDS011;2976;49.764;9.796;2023-01-19T09:39:07;13.37;;;7.80;;
5900;SDS011;2976;49.764;9.796;2023-01-19T09:41:33;10.20;;;7.60;;
5900;SDS011;2976;49.764;9.796;2023-01-19T09:44:00;14.87;;;7.40;;
5900;SDS011;2976;49.764;9.796;2023-01-19T09:46:38;12.17;;;7.30;;
5900;SDS011;2976;49.764;9.796;2023-01-19T09:49:12;12.43;;;7.50;;
5900;SDS011;2976;49.764;9.796;2023-01-19T09:51:52;10.37;;;6.37;;
5900;SDS011;2976;49.764;9.796;2023-01-19T09:57:18;10.50;;;6.43;;
5900;SDS011;2976;49.764;9.796;2023-01-19T09:59:45;7.80;;;6.20;;
5900;SDS011;2976;49.764;9.796;2023-01-19T10:05:20;10.37;;;6.70;;
5900;SDS011;2976;49.764;9.796;2023-01-19T10:10:28;15.23;;;8.10;;
5900;SDS011;2976;49.764;9.796;2023-01-19T10:16:01;10.50;;;7.20;;
5900;SDS011;2976;49.764;9.796;2023-01-19T10:18:42;16.87;;;8.20;;
5900;SDS011;2976;49.764;9.796;2023-01-19T10:21:19;16.03;;;9.33;;
5900;SDS011;2976;49.764;9.796;2023-01-19T10:23:56;13.37;;;8.40;;
5900;SDS011;2976;49.764;9.796;2023-01-19T10:29:22;14.20;;;8.30;;
5900;SDS011;2976;49.764;9.796;2023-01-19T10:31:46;11.10;;;7.70;;
5900;SDS011;2976;49.764;9.796;2023-01-19T10:34:15;13.47;;;9.03;;
5900;SDS011;2976;49.764;9.796;2023-01-19T10:36:44;14.37;;;8.40;;
5900;SDS011;2976;49.764;9.796;2023-01-19T10:39:14;17.97;;;8.63;;
5900;SDS011;2976;49.764;9.796;2023-01-19T10:41:43;15.53;;;8.80;;
5900;SDS011;2976;49.764;9.796;2023-01-19T10:44:22;19.30;;;7.80;;
5900;SDS011;2976;49.764;9.796;2023-01-19T10:46:52;16.33;;;8.37;;
5900;SDS011;2976;49.764;9.796;2023-01-19T10:49:24;14.13;;;8.37;;
5900;SDS011;2976;49.764;9.796;2023-01-19T10:52:01;12.20;;;7.57;;
5900;SDS011;2976;49.764;9.796;2023-01-19T10:54:29;11.17;;;7.30;;
5900;SDS011;2976;49.764;9.796;2023-01-19T10:56:56;11.70;;;7.37;;
5900;SDS011;2976;49.764;9.796;2023-01-19T10:59:33;16.00;;;7.90;;
5900;SDS011;2976;49.764;9.796;2023-01-19T11:02:20;12.73;;;6.93;;
5900;SDS011;2976;49.764;9.796;2023-01-19T11:04:52;9.97;;;6.30;;
5900;SDS011;2976;49.764;9.796;2023-01-19T11:07:21;13.87;;;8.20;;
5900;SDS011;2976;49.764;9.796;2023-01-19T11:12:39;9.03;;;6.20;;
5900;SDS011;2976;49.764;9.796;2023-01-19T11:15:23;10.50;;;7.40;;
5900;SDS011;2976;49.764;9.796;2023-01-19T11:17:53;7.70;;;6.33;;
5900;SDS011;2976;49.764;9.796;2023-01-19T11:20:20;20.87;;;7.40;;
5900;SDS011;2976;49.764;9.796;2023-01-19T11:23:05;9.90;;;6.60;;
5900;SDS011;2976;49.764;9.796;2023-01-19T11:25:43;9.07;;;6.27;;
5900;SDS011;2976;49.764;9.796;2023-01-19T11:28:18;8.67;;;5.90;;
5900;SDS011;2976;49.764;9.796;2023-01-19T11:30:53;9.20;;;6.60;;
5900;SDS011;2976;49.764;9.796;2023-01-19T11:34:20;16.67;;;7.50;;
5900;SDS011;2976;49.764;9.796;2023-01-19T11:36:16;10.23;;;6.93;;
5900;SDS011;2976;49.764;9.796;2023-01-19T11:38:43;12.83;;;6.17;;
5900;SDS011;2976;49.764;9.796;2023-01-19T11:41:20;10.27;;;6.03;;
5900;SDS011;2976;49.764;9.796;2023-01-19T11:43:53;10.33;;;6.63;;
5900;SDS011;2976;49.764;9.796;2023-01-19T11:46:23;10.87;;;6.60;;
5900;SDS011;2976;49.764;9.796;2023-01-19T11:49:35;9.20;;;6.33;;
5900;SDS011;2976;49.764;9.796;2023-01-19T11:51:49;16.07;;;7.17;;
5900;SDS011;2976;49.764;9.796;2023-01-19T11:54:24;9.33;;;7.00;;
5900;SDS011;2976;49.764;9.796;2023-01-19T11:56:53;10.30;;;6.83;;
5900;SDS011;2976;49.764;9.796;2023-01-19T11:59:22;11.30;;;6.07;;
5900;SDS011;2976;49.764;9.796;2023-01-19T12:01:52;13.00;;;6.70;;
5900;SDS011;2976;49.764;9.796;2023-01-19T12:04:25;9.17;;;5.83;;
5900;SDS011;2976;49.764;9.796;2023-01-19T12:06:54;10.20;;;6.40;;
5900;SDS011;2976;49.764;9.796;2023-01-19T12:09:32;11.27;;;6.80;;
5900;SDS011;2976;49.764;9.796;2023-01-19T12:12:27;9.10;;;6.47;;
5900;SDS011;2976;49.764;9.796;2023-01-19T12:14:57;8.60;;;6.00;;
5900;SDS011;2976;49.764;9.796;2023-01-19T12:17:46;13.63;;;5.80;;
5900;SDS011;2976;49.764;9.796;2023-01-19T12:20:20;15.37;;;6.83;;
5900;SDS011;2976;49.764;9.796;2023-01-19T12:23:07;11.50;;;6.33;;
5900;SDS011;2976;49.764;9.796;2023-01-19T12:28:31;10.53;;;6.90;;
5900;SDS011;2976;49.764;9.796;2023-01-19T12:31:00;11.60;;;6.73;;
5900;SDS011;2976;49.764;9.796;2023-01-19T12:33:36;11.63;;;6.87;;
5900;SDS011;2976;49.764;9.796;2023-01-19T12:36:04;10.63;;;7.00;;
5900;SDS011;2976;49.764;9.796;2023-01-19T12:38:44;13.27;;;7.20;;
5900;SDS011;2976;49.764;9.796;2023-01-19T12:41:35;11.37;;;6.50;;
5900;SDS011;2976;49.764;9.796;2023-01-19T12:46:33;8.70;;;6.50;;
5900;SDS011;2976;49.764;9.796;2023-01-19T12:51:40;10.17;;;6.20;;
5900;SDS011;2976;49.764;9.796;2023-01-19T12:54:06;11.50;;;7.17;;
5900;SDS011;2976;49.764;9.796;2023-01-19T12:56:40;10.20;;;6.90;;
5900;SDS011;2976;49.764;9.796;2023-01-19T12:59:05;11.53;;;7.27;;
5900;SDS011;2976;49.764;9.796;2023-01-19T13:02:06;11.37;;;6.17;;
5900;SDS011;2976;49.764;9.796;2023-01-19T13:19:14;14.07;;;7.40;;
5900;SDS011;2976;49.764;9.796;2023-01-19T13:21:40;13.40;;;7.33;;
5900;SDS011;2976;49.764;9.796;2023-01-19T13:29:15;10.60;;;6.10;;
5900;SDS011;2976;49.764;9.796;2023-01-19T13:31:54;10.73;;;6.77;;
5900;SDS011;2976;49.764;9.796;2023-01-19T13:34:26;10.70;;;7.03;;
5900;SDS011;2976;49.764;9.796;2023-01-19T13:37:01;10.33;;;7.23;;
5900;SDS011;2976;49.764;9.796;2023-01-19T13:39:29;13.33;;;6.13;;
5900;SDS011;2976;49.764;9.796;2023-01-19T13:42:00;11.07;;;7.00;;
5900;SDS011;2976;49.764;9.796;2023-01-19T13:44:33;11.73;;;6.37;;
5900;SDS011;2976;49.764;9.796;2023-01-19T13:47:03;12.70;;;7.00;;
5900;SDS011;2976;49.764;9.796;2023-01-19T13:49:32;8.17;;;6.63;;
5900;SDS011;2976;49.764;9.796;2023-01-19T13:54:30;9.60;;;6.30;;
5900;SDS011;2976;49.764;9.796;2023-01-19T13:56:55;9.30;;;6.53;;
5900;SDS011;2976;49.764;9.796;2023-01-19T13:59:21;14.77;;;7.93;;
5900;SDS011;2976;49.764;9.796;2023-01-19T14:01:46;9.73;;;6.00;;
5900;SDS011;2976;49.764;9.796;2023-01-19T14:04:24;13.87;;;7.53;;
5900;SDS011;2976;49.764;9.796;2023-01-19T14:06:51;11.13;;;6.80;;
5900;SDS011;2976;49.764;9.796;2023-01-19T14:09:19;16.47;;;6.50;;
5900;SDS011;2976;49.764;9.796;2023-01-19T14:11:47;17.97;;;6.87;;
5900;SDS011;2976;49.764;9.796;2023-01-19T14:14:28;11.90;;;6.90;;
5900;SDS011;2976;49.764;9.796;2023-01-19T14:16:53;10.80;;;6.77;;
5900;SDS011;2976;49.764;9.796;2023-01-19T14:19:19;9.60;;;6.63;;
5900;SDS011;2976;49.764;9.796;2023-01-19T14:21:45;12.77;;;7.13;;
5900;SDS011;2976;49.764;9.796;2023-01-19T14:24:21;12.80;;;5.90;;
5900;SDS011;2976;49.764;9.796;2023-01-19T14:26:48;9.80;;;6.77;;
5900;SDS011;2976;49.764;9.796;2023-01-19T14:29:28;15.33;;;6.80;;
5900;SDS011;2976;49.764;9.796;2023-01-19T14:32:14;11.93;;;6.30;;
5900;SDS011;2976;49.764;9.796;2023-01-19T14:34:43;11.50;;;6.67;;
5900;SDS011;2976;49.764;9.796;2023-01-19T14:37:18;11.03;;;6.40;;
5900;SDS011;2976;49.764;9.796;2023-01-19T14:39:56;10.90;;;7.40;;
5900;SDS011;2976;49.764;9.796;2023-01-19T14:42:24;19.17;;;8.23;;
5900;SDS011;2976;49.764;9.796;2023-01-19T14:44:51;12.63;;;6.43;;
5900;SDS011;2976;49.764;9.796;2023-01-19T14:47:30;9.93;;;7.00;;
5900;SDS011;2976;49.764;9.796;2023-01-19T14:50:30;10.63;;;6.60;;
5900;SDS011;2976;49.764;9.796;2023-01-19T14:52:49;8.40;;;6.63;;
5900;SDS011;2976;49.764;9.796;2023-01-19T14:55:28;10.97;;;7.47;;
5900;SDS011;2976;49.764;9.796;2023-01-19T14:58:07;13.30;;;7.37;;
5900;SDS011;2976;49.764;9.796;2023-01-19T15:00:36;12.40;;;7.60;;
5900;SDS011;2976;49.764;9.796;2023-01-19T15:03:01;13.73;;;7.83;;
5900;SDS011;2976;49.764;9.796;2023-01-19T15:05:30;17.07;;;7.60;;
5900;SDS011;2976;49.764;9.796;2023-01-19T15:07:56;10.80;;;7.53;;
5900;SDS011;2976;49.764;9.796;2023-01-19T15:10:22;12.40;;;7.83;;
5900;SDS011;2976;49.764;9.796;2023-01-19T15:12:49;14.73;;;7.57;;
5900;SDS011;2976;49.764;9.796;2023-01-19T15:15:17;17.60;;;8.93;;
5900;SDS011;2976;49.764;9.796;2023-01-19T15:17:47;13.67;;;9.03;;
5900;SDS011;2976;49.764;9.796;2023-01-19T15:20:15;11.60;;;8.20;;
5900;SDS011;2976;49.764;9.796;2023-01-19T15:22:43;19.53;;;10.10;;
5900;SDS011;2976;49.764;9.796;2023-01-19T15:25:12;16.03;;;8.03;;
5900;SDS011;2976;49.764;9.796;2023-01-19T15:27:39;13.63;;;8.50;;
5900;SDS011;2976;49.764;9.796;2023-01-19T15:30:38;15.83;;;9.43;;
5900;SDS011;2976;49.764;9.796;2023-01-19T15:32:57;15.40;;;8.70;;
5900;SDS011;2976;49.764;9.796;2023-01-19T15:35:24;14.90;;;9.10;;
5900;SDS011;2976;49.764;9.796;2023-01-19T15:37:52;15.17;;;9.23;;
5900;SDS011;2976;49.764;9.796;2023-01-19T15:40:18;15.03;;;9.00;;
5900;SDS011;2976;49.764;9.796;2023-01-19T15:42:46;21.60;;;9.73;;
5900;SDS011;2976;49.764;9.796;2023-01-19T15:48:23;17.23;;;9.57;;
5900;SDS011;2976;49.764;9.796;2023-01-19T15:50:49;18.17;;;9.10;;
5900;SDS011;2976;49.764;9.796;2023-01-19T15:53:16;17.60;;;9.83;;
5900;SDS011;2976;49.764;9.796;2023-01-19T15:55:43;24.03;;;9.97;;
5900;SDS011;2976;49.764;9.796;2023-01-19T15:58:12;15.03;;;10.17;;
5900;SDS011;2976;49.764;9.796;2023-01-19T16:00:38;19.10;;;10.30;;
5900;SDS011;2976;49.764;9.796;2023-01-19T16:03:03;23.37;;;8.90;;
5900;SDS011;2976;49.764;9.796;2023-01-19T16:05:29;17.17;;;10.10;;
5900;SDS011;2976;49.764;9.796;2023-01-19T16:07:54;21.33;;;10.73;;
5900;SDS011;2976;49.764;9.796;2023-01-19T16:10:20;22.57;;;12.03;;